createdAt,value
2022-07-30T00:01:53.738Z,41.27
2022-07-30T00:06:46.502Z,41.42
2022-07-30T00:11:39.224Z,41.4
2022-07-30T00:16:31.819Z,41.06
2022-07-30T00:21:36.507Z,41.26
2022-07-30T00:26:16.934Z,41.72
2022-07-30T00:31:09.575Z,41.3
2022-07-30T00:36:02.360Z,41.27
2022-07-30T00:40:55.001Z,41.5
2022-07-30T00:45:47.753Z,41.87
2022-07-30T00:50:40.021Z,41.97
2022-07-30T00:55:32.932Z,42.15
2022-07-30T01:00:25.737Z,42.76
2022-07-30T01:05:18.720Z,42.34
2022-07-30T01:10:11.121Z,41.96
2022-07-30T01:15:03.564Z,42.32
2022-07-30T01:19:56.063Z,42.16
2022-07-30T01:24:48.929Z,42.22
2022-07-30T01:29:41.408Z,41.91
2022-07-30T01:34:33.636Z,42
2022-07-30T01:39:26.174Z,42.23
2022-07-30T01:44:23.508Z,42.23
2022-07-30T01:49:11.541Z,41.93
2022-07-30T01:54:04.073Z,41.96
2022-07-30T01:58:56.511Z,42.05
2022-07-30T02:03:49.454Z,42.35
2022-07-30T02:08:41.954Z,41.99
2022-07-30T02:13:34.874Z,42.45
2022-07-30T02:18:27.513Z,42.28
2022-07-30T02:23:20.228Z,41.93
2022-07-30T02:28:12.690Z,42.33
2022-07-30T02:37:58.047Z,42.52
2022-07-30T02:47:43.133Z,42.3
2022-07-30T02:57:28.382Z,43.04
2022-07-30T03:02:24.850Z,43.19
2022-07-30T03:07:13.353Z,43.48
2022-07-30T03:12:05.720Z,43.82
2022-07-30T03:16:58.586Z,43.75
2022-07-30T03:21:50.715Z,44.03
2022-07-30T03:26:43.490Z,43.87
2022-07-30T03:31:37.980Z,43.79
2022-07-30T03:36:28.698Z,44.12
2022-07-30T03:41:21.268Z,44.32
2022-07-30T03:46:13.929Z,44.31
2022-07-30T03:51:06.468Z,44.45
2022-07-30T03:55:59.168Z,44.46
2022-07-30T04:00:51.670Z,44.72
2022-07-30T04:05:44.188Z,44.56
2022-07-30T04:16:05.362Z,44.78
2022-07-30T04:20:18.446Z,44.89
2022-07-30T04:25:11.061Z,44.75
2022-07-30T04:30:03.597Z,45.28
2022-07-30T04:34:55.707Z,46.31
2022-07-30T04:39:48.182Z,45.73
2022-07-30T04:44:40.661Z,47.53
2022-07-30T04:49:32.633Z,48.54
2022-07-30T04:54:25.063Z,49
2022-07-30T04:59:17.780Z,49.07
2022-07-30T05:04:10.404Z,49.17
2022-07-30T05:09:02.988Z,50.45
2022-07-30T05:13:55.695Z,50.43
2022-07-30T05:18:48.331Z,51.63
2022-07-30T05:23:40.882Z,52.62
2022-07-30T05:28:33.570Z,51.09
2022-07-30T05:33:41.415Z,51.62
2022-07-30T05:38:18.963Z,50.92
2022-07-30T05:43:11.517Z,51.18
2022-07-30T05:48:03.909Z,51.7
2022-07-30T05:52:56.550Z,50.83
2022-07-30T05:57:48.427Z,51.67
2022-07-30T06:02:41.183Z,51.16
2022-07-30T06:07:33.216Z,50.82
2022-07-30T06:12:25.918Z,51.03
2022-07-30T06:17:18.358Z,51.47
2022-07-30T06:22:10.918Z,51.58
2022-07-30T06:27:03.701Z,52.69
2022-07-30T06:31:55.451Z,51.79
2022-07-30T06:41:35.511Z,52.21
2022-07-30T06:46:29.404Z,51.91
2022-07-30T06:51:22.151Z,51.85
2022-07-30T06:56:14.505Z,51.72
2022-07-30T07:01:11.077Z,52.67
2022-07-30T07:05:59.636Z,51.6
2022-07-30T07:10:52.340Z,52.14
2022-07-30T07:15:45.066Z,51.65
2022-07-30T07:20:37.504Z,53.6
2022-07-30T07:25:30.492Z,50.85
2022-07-30T07:30:22.793Z,51.14
2022-07-30T07:35:15.310Z,52.62
2022-07-30T07:40:07.703Z,52.12
2022-07-30T07:45:00.806Z,52.41
2022-07-30T07:49:53.384Z,52.02
2022-07-30T07:54:45.929Z,51.62
2022-07-30T07:59:39.872Z,52.04
2022-07-30T08:04:31.116Z,51.78
2022-07-30T08:09:23.696Z,52.06
2022-07-30T08:14:16.272Z,52.76
2022-07-30T08:19:09.445Z,51.3
2022-07-30T08:24:02.080Z,50.8
2022-07-30T08:28:54.658Z,50.5
2022-07-30T08:33:47.495Z,50.23
2022-07-30T08:38:40.087Z,50.22
2022-07-30T08:43:32.618Z,50.19
2022-07-30T08:53:17.867Z,50
2022-07-30T09:03:03.299Z,49.67
2022-07-30T09:07:55.939Z,49.39
2022-07-30T09:12:48.515Z,49.7
2022-07-30T09:17:40.970Z,49.8
2022-07-30T09:22:33.730Z,49.87
2022-07-30T09:27:26.238Z,49.77
2022-07-30T09:32:18.834Z,49.7
2022-07-30T09:37:12.643Z,49.48
2022-07-30T09:42:04.553Z,49.89
2022-07-30T09:46:56.791Z,49.93
2022-07-30T09:52:05.283Z,50.04
2022-07-30T09:56:42.645Z,49.99
2022-07-30T10:01:46.987Z,50.13
2022-07-30T10:06:27.681Z,50.17
2022-07-30T10:11:22.974Z,50.17
2022-07-30T10:16:12.689Z,50.16
2022-07-30T10:21:05.787Z,50.3
2022-07-30T10:25:57.996Z,50.57
2022-07-30T10:30:51.136Z,50.45
2022-07-30T10:35:44.425Z,50.23
2022-07-30T10:40:39.474Z,50.18
2022-07-30T10:45:29.540Z,49.93
2022-07-30T10:50:22.668Z,49.96
2022-07-30T10:55:15.743Z,49.92
2022-07-30T11:00:07.621Z,49.93
2022-07-30T11:05:00.298Z,49.93
2022-07-30T11:10:00.052Z,49.92
2022-07-30T11:14:45.577Z,50.09
2022-07-30T11:19:51.681Z,50.01
2022-07-30T11:24:30.928Z,50.06
2022-07-30T11:29:25.234Z,50.31
2022-07-30T11:34:15.938Z,50.43
2022-07-30T11:39:08.694Z,50.57
2022-07-30T11:44:01.328Z,50.59
2022-07-30T11:48:53.935Z,50.72
2022-07-30T11:53:46.485Z,50.66
2022-07-30T11:58:38.956Z,50.46
2022-07-30T12:03:31.168Z,50.39
2022-07-30T12:08:31.934Z,50.07
2022-07-30T12:13:16.319Z,49.9
2022-07-30T12:18:25.679Z,49.77
2022-07-30T12:23:01.628Z,49.75
2022-07-30T12:27:54.093Z,49.63
2022-07-30T12:32:46.821Z,49.5
2022-07-30T12:37:39.682Z,49.5
2022-07-30T12:42:32.633Z,49.28
2022-07-30T12:47:25.033Z,49.24
2022-07-30T12:52:18.584Z,49.22
2022-07-30T12:57:09.838Z,49.23
2022-07-30T13:02:02.625Z,48.89
2022-07-30T13:06:54.998Z,48.91
2022-07-30T13:11:48.372Z,50.83
2022-07-30T13:16:39.703Z,50.65
2022-07-30T13:21:31.790Z,51.28
2022-07-30T13:26:24.084Z,50.56
2022-07-30T13:31:16.533Z,50.82
2022-07-30T13:36:09.317Z,50.16
2022-07-30T13:41:02.797Z,49.61
2022-07-30T13:45:54.366Z,51.04
2022-07-30T13:50:46.714Z,49.38
2022-07-30T13:55:38.964Z,49.19
2022-07-30T14:00:31.197Z,49.32
2022-07-30T14:05:23.956Z,48.92
2022-07-30T14:10:16.715Z,48.82
2022-07-30T14:15:09.165Z,48.98
2022-07-30T14:20:01.246Z,49.59
2022-07-30T14:24:54.405Z,49.03
2022-07-30T14:29:47.019Z,48.78
2022-07-30T14:34:39.874Z,48.9
2022-07-30T14:39:32.410Z,49.14
2022-07-30T14:44:24.928Z,49.12
2022-07-30T14:49:17.607Z,49.19
2022-07-30T14:59:02.357Z,49.12
2022-07-30T15:08:46.988Z,49.08
2022-07-30T15:13:41.133Z,49.12
2022-07-30T15:18:32.191Z,49.71
2022-07-30T15:28:16.911Z,50.14
2022-07-30T15:33:09.862Z,50.24
2022-07-30T15:38:02.362Z,50.33
2022-07-30T15:42:55.059Z,50.07
2022-07-30T15:47:47.968Z,49.83
2022-07-30T15:52:40.670Z,49.98
2022-07-30T15:57:33.416Z,49.89
2022-07-30T16:02:25.728Z,50.01
2022-07-30T16:07:18.715Z,49.66
2022-07-30T16:12:11.427Z,49.86
2022-07-30T16:17:03.982Z,50.38
2022-07-30T16:21:56.067Z,50.99
2022-07-30T16:26:48.693Z,50.29
2022-07-30T16:31:41.527Z,50.68
2022-07-30T16:36:34.373Z,50.33
2022-07-30T16:41:26.557Z,50.38
2022-07-30T16:46:19.481Z,50.45
2022-07-30T16:51:12.129Z,50.65
2022-07-30T16:56:04.971Z,50.37
2022-07-30T17:00:56.893Z,50.37
2022-07-30T17:05:49.509Z,50.26
2022-07-30T17:10:42.214Z,49.97
2022-07-30T17:15:34.843Z,50.09
2022-07-30T17:20:27.571Z,49.91
2022-07-30T17:25:20.125Z,50.11
2022-07-30T17:30:12.624Z,49.85
2022-07-30T17:35:05.464Z,50.19
2022-07-30T17:40:18.914Z,50.12
2022-07-30T17:44:50.623Z,50.45
2022-07-30T17:49:43.250Z,51.9
2022-07-30T17:54:35.567Z,52.95
2022-07-30T17:59:28.219Z,53.35
2022-07-30T18:04:20.834Z,53.18
2022-07-30T18:09:13.837Z,53.43
2022-07-30T18:14:06.336Z,53.4
2022-07-30T18:18:58.758Z,53.61
2022-07-30T18:23:51.921Z,53.77
2022-07-30T18:28:44.494Z,53.73
2022-07-30T18:33:37.143Z,53.86
2022-07-30T18:38:29.901Z,53.77
2022-07-30T18:43:22.367Z,55.27
2022-07-30T18:48:15.111Z,55.85
2022-07-30T18:53:15.151Z,55.97
2022-07-30T18:58:00.281Z,54.94
2022-07-30T19:02:53.029Z,54.23
2022-07-30T19:07:55.374Z,53.44
2022-07-30T19:12:38.890Z,53.2
2022-07-30T19:17:45.107Z,52.91
2022-07-30T19:22:29.654Z,52.34
2022-07-30T19:27:16.498Z,52.11
2022-07-30T19:32:08.883Z,51.65
2022-07-30T19:37:01.412Z,51.69
2022-07-30T19:41:54.023Z,51.32
2022-07-30T19:46:46.639Z,51.15
2022-07-30T19:52:07.495Z,51.09
2022-07-30T19:56:35.066Z,50.85
2022-07-30T20:01:24.153Z,50.71
2022-07-30T20:06:16.605Z,50.48
2022-07-30T20:11:09.439Z,50.35
2022-07-30T20:16:02.079Z,50.27
2022-07-30T20:20:54.257Z,50.15
2022-07-30T20:25:46.924Z,50.05
2022-07-30T20:35:32.513Z,49.55
2022-07-30T20:45:17.521Z,49.15
2022-07-30T20:55:03.166Z,48.82
2022-07-30T20:59:55.869Z,48.81
2022-07-30T21:04:48.200Z,48.71
2022-07-30T21:09:50.031Z,48.68
2022-07-30T21:14:32.890Z,48.31
2022-07-30T21:19:25.199Z,48.12
2022-07-30T21:24:17.543Z,48.23
2022-07-30T21:29:09.937Z,47.95
2022-07-30T21:34:02.531Z,47.95
2022-07-30T21:38:54.814Z,47.72
2022-07-30T21:48:40.930Z,47.54
2022-07-30T21:53:44.745Z,47.37
2022-07-30T21:58:26.628Z,47.42
2022-07-30T22:04:01.055Z,47.31
2022-07-30T22:08:10.858Z,47.13
2022-07-30T22:13:03.381Z,47.05
2022-07-30T22:17:58.025Z,47.21
2022-07-30T22:22:48.460Z,47.01
2022-07-30T22:27:55.842Z,47.01
2022-07-30T22:32:34.071Z,46.77
2022-07-30T22:37:26.600Z,46.77
2022-07-30T22:42:19.364Z,46.34
2022-07-30T22:47:15.713Z,46.46
2022-07-30T22:52:10.031Z,46.35
2022-07-30T22:56:57.123Z,45.98
2022-07-30T23:01:49.796Z,46.01
2022-07-30T23:06:42.219Z,45.79
2022-07-30T23:11:37.159Z,46.07
2022-07-30T23:12:29.946Z,47.71
2022-07-30T23:16:27.183Z,45.96
2022-07-30T23:21:19.839Z,45.81
2022-07-30T23:26:12.550Z,45.77
2022-07-30T23:31:04.868Z,45.93
2022-07-30T23:35:57.700Z,45.86
2022-07-30T23:40:50.247Z,45.75
2022-07-30T23:45:42.696Z,45.67
2022-07-30T23:50:35.177Z,45.58
2022-07-30T23:55:27.672Z,45.57
